Flight Track Log - Related Links

Times and Time Zones

All times are in EDT time to prevent confusion due to time zone crossing. See the N27XP flight status page for this flight to view local times or setup timezone preferences in your user account.

Time Position Orientation Groundspeed Altitude Reporting Facility
EDT Latitude Longitude Course Direction KTS MPH feet Rate Location/Type
Thu 02:21:17 PM 40.4158 -86.9664 256° West 201 231 1,500  Level Chicago Center
Thu 02:22:43 PM 40.4031 -87.0350 256° West 162 186 5,700 2,311 Climbing Chicago Center
Thu 02:23:45 PM 40.3547 -86.9725 135° Southeast 299 344 7,200 2,129 Climbing Chicago Center
Thu 02:24:47 PM 40.3008 -86.8992 134° Southeast 283 326 10,100 3,242 Climbing Chicago Center
Thu 02:25:49 PM 40.2431 -86.8019 128° Southeast 281 323 13,900 2,952 Climbing Chicago Center
Thu 02:26:51 PM 40.1908 -86.7203 130° Southeast 290 334 16,200 2,371 Climbing Chicago Center
Thu 02:27:53 PM 40.1403 -86.6369 128° Southeast 294 338 18,800 2,283 Climbing Chicago Center
Thu 02:28:23 PM 40.1186 -86.6031 130° Southeast 293 337 19,700 2,217 Climbing Indianapolis Center
Thu 02:29:25 PM 40.0539 -86.5092 132° Southeast 294 338 22,200 1,984 Climbing Indianapolis Center
Thu 02:30:27 PM 39.9769 -86.4842 166° South 287 330 23,800 1,113 Climbing Indianapolis Center
Thu 02:31:29 PM 39.8892 -86.4653 171° South 319 367 24,500 1,113 Climbing Indianapolis Center
Thu 02:32:31 PM 39.7947 -86.4389 168° South 347 399 26,100 1,500 Climbing Indianapolis Center
Thu 02:33:33 PM 39.7083 -86.3414 139° Southeast 369 425 27,600 1,403 Climbing Indianapolis Center
Thu 02:34:35 PM 39.6486 -86.2272 124° Southeast 383 441 29,000 1,355 Climbing Indianapolis Center
Thu 02:35:37 PM 39.5931 -86.1139 122° Southeast 381 438 30,400 1,344 Climbing Indianapolis Center
Thu 02:36:40 PM 39.5353 -86.0000 123° Southeast 381 438 31,800 1,440 Climbing Indianapolis Center
Thu 02:37:42 PM 39.4650 -85.8636 124° Southeast 382 440 33,400 1,355 Climbing Indianapolis Center
Thu 02:38:44 PM 39.4072 -85.7500 123° Southeast 380 437 34,600 774 Climbing Indianapolis Center
Thu 02:39:46 PM 39.3486 -85.6347 123° Southeast 384 442 35,000 194 Climbing Indianapolis Center
Thu 02:40:48 PM 39.2836 -85.5103 124° Southeast 415 478 35,000  Level Indianapolis Center
Thu 02:41:50 PM 39.2153 -85.3789 124° Southeast 439 505 35,000  Level Indianapolis Center
Thu 02:42:52 PM 39.1264 -85.2203 126° Southeast 456 525 35,000  Level Indianapolis Center
Thu 02:43:54 PM 39.0444 -85.0953 130° Southeast 459 528 35,000  Level Indianapolis Center
Thu 02:44:56 PM 38.9631 -84.9647 129° Southeast 467 537 35,000  Level Indianapolis Center
Thu 02:45:58 PM 38.8808 -84.8372 130° Southeast 466 536 35,000  Level Indianapolis Center
Thu 02:47:00 PM 38.7942 -84.7142 132° Southeast 465 535 35,000  Level Indianapolis Center
Thu 02:48:02 PM 38.7067 -84.5917 132° Southeast 466 536 35,000  Level Indianapolis Center
Thu 02:49:04 PM 38.6128 -84.4586 132° Southeast 462 532 35,000 97 Level Indianapolis Center
Thu 02:50:06 PM 38.5233 -84.3397 134° Southeast 462 532 35,200 387 Climbing Indianapolis Center
Thu 02:51:08 PM 38.4194 -84.2036 134° Southeast 458 527 35,800 432 Climbing Indianapolis Center
Thu 02:52:11 PM 38.3300 -84.0906 135° Southeast 455 524 36,100 336 Climbing Indianapolis Center
Thu 02:53:13 PM 38.2414 -83.9725 134° Southeast 460 529 36,500 339 Climbing Indianapolis Center
Thu 02:54:15 PM 38.1639 -83.8422 127° Southeast 460 529 36,800 242 Climbing Indianapolis Center
Thu 02:55:17 PM 38.0811 -83.7186 130° Southeast 459 528 37,000 97 Climbing Indianapolis Center
Thu 02:56:19 PM 37.9833 -83.5689 130° Southeast 469 540 37,000  Level Indianapolis Center
Thu 02:57:21 PM 37.8983 -83.4400 130° Southeast 475 547 37,000  Level Indianapolis Center
Thu 02:58:23 PM 37.8153 -83.3119 129° Southeast 473 544 37,000  Level Indianapolis Center
Thu 02:59:25 PM 37.7306 -83.1850 130° Southeast 470 541 37,000  Level Indianapolis Center
Thu 03:00:27 PM 37.6461 -83.0569 130° Southeast 473 544 37,000  Level Indianapolis Center
Thu 03:01:29 PM 37.5608 -82.9317 131° Southeast 470 541 37,000  Level Indianapolis Center
Thu 03:02:31 PM 37.4631 -82.7836 130° Southeast 468 539 37,000  Level Indianapolis Center
Thu 03:03:33 PM 37.3775 -82.6561 130° Southeast 471 542 37,000  Level Indianapolis Center
Thu 03:04:35 PM 37.2917 -82.5297 130° Southeast 472 543 37,000  Level Indianapolis Center
Thu 03:05:37 PM 37.2067 -82.4033 130° Southeast 470 541 37,000  Level Indianapolis Center
Thu 03:06:40 PM 37.1211 -82.2767 130° Southeast 472 543 37,000  Level Indianapolis Center
Thu 03:07:42 PM 37.0344 -82.1508 131° Southeast 474 545 37,000 -629 Level Indianapolis Center
Thu 03:08:44 PM 36.9328 -82.0028 131° Southeast 479 551 35,700 -968 Descending Indianapolis Center
Thu 03:09:46 PM 36.8461 -81.8761 131° Southeast 478 550 35,000 -785 Descending Indianapolis Center
Thu 03:10:31 PM 36.7906 -81.7942 130° Southeast 475 547 34,300 -1,657 Descending Atlanta Center
Thu 03:11:31 PM 36.7050 -81.6722 131° Southeast 475 547 32,100 -2,450 Descending Atlanta Center
Thu 03:12:31 PM 36.6147 -81.5403 130° Southeast 469 540 29,400 -2,600 Descending Atlanta Center
Thu 03:13:31 PM 36.5308 -81.4242 132° Southeast 457 526 26,900 -2,450 Descending Atlanta Center
Thu 03:14:31 PM 36.4511 -81.3056 130° Southeast 450 518 24,500 -2,450 Descending Atlanta Center
Thu 03:15:31 PM 36.3694 -81.1897 131° Southeast 445 512 22,000 -2,350 Descending Atlanta Center
Thu 03:16:31 PM 36.2903 -81.1100 141° Southeast 431 496 19,800 -2,250 Descending Atlanta Center
Thu 03:17:31 PM 36.1928 -81.0414 150° Southeast 420 483 17,500 -2,450 Descending Atlanta Center
Thu 03:18:31 PM 36.1092 -80.9494 138° Southeast 410 472 14,900 -2,450 Descending Atlanta Center
Thu 03:19:31 PM 36.0397 -80.8442 129° Southeast 400 460 12,600 -1,300 Descending Atlanta Center
Thu 03:21:31 PM 36.0350 -80.5928 91° East 353 406 11,000 -533 Descending Atlanta Center
Thu 03:22:31 PM 36.0483 -80.4767 82° East 345 397 11,000  Level Atlanta Center
Thu 03:23:31 PM 36.0489 -80.3533 90° East 345 397 11,000  Level Atlanta Center
Thu 03:24:31 PM 35.9919 -80.2661 129° Southeast 330 380 11,000  Level Atlanta Center
Thu 03:25:31 PM 35.9064 -80.1933 145° Southeast 326 375 11,000 -750 Level Atlanta Center
Thu 03:26:31 PM 35.8289 -80.1253 145° Southeast 331 381 9,500 -3,000 Descending Atlanta Center
Thu 03:27:31 PM 35.7519 -80.0622 146° Southeast 338 389 5,000 -1,750 Descending Atlanta Center
Thu 03:28:31 PM 35.6858 -80.0169 151° Southeast 325 374 6,000 50 Climbing Atlanta Center
Thu 03:29:31 PM 35.6194 -79.9642 147° Southeast 303 349 5,100 -900 Descending Atlanta Center

Login

Don't have an account? Register now (free) for customized features, flight alerts, and more!